sensor_id;sensor_type;location;lat;lon;timestamp;P1;durP1;ratioP1;P2;durP2;ratioP2
14167;SDS011;7163;50.626;12.922;2023-03-21T00:02:30;25.17;;;12.13;;
14167;SDS011;7163;50.626;12.922;2023-03-21T00:07:34;20.40;;;10.53;;
14167;SDS011;7163;50.626;12.922;2023-03-21T00:12:34;16.90;;;10.40;;
14167;SDS011;7163;50.626;12.922;2023-03-21T00:17:36;15.23;;;9.97;;
14167;SDS011;7163;50.626;12.922;2023-03-21T00:22:38;21.27;;;11.10;;
14167;SDS011;7163;50.626;12.922;2023-03-21T00:27:39;17.87;;;10.53;;
14167;SDS011;7163;50.626;12.922;2023-03-21T00:32:39;16.57;;;9.70;;
14167;SDS011;7163;50.626;12.922;2023-03-21T00:37:41;21.17;;;11.03;;
14167;SDS011;7163;50.626;12.922;2023-03-21T00:42:42;16.57;;;9.80;;
14167;SDS011;7163;50.626;12.922;2023-03-21T00:47:42;19.27;;;11.40;;
14167;SDS011;7163;50.626;12.922;2023-03-21T00:52:43;17.50;;;10.10;;
14167;SDS011;7163;50.626;12.922;2023-03-21T00:57:43;19.70;;;8.93;;
14167;SDS011;7163;50.626;12.922;2023-03-21T01:02:44;16.40;;;8.97;;
14167;SDS011;7163;50.626;12.922;2023-03-21T01:08:03;16.57;;;9.03;;
14167;SDS011;7163;50.626;12.922;2023-03-21T01:13:05;17.03;;;8.60;;
14167;SDS011;7163;50.626;12.922;2023-03-21T01:18:05;12.17;;;6.90;;
14167;SDS011;7163;50.626;12.922;2023-03-21T01:23:06;14.23;;;6.70;;
14167;SDS011;7163;50.626;12.922;2023-03-21T01:28:07;11.87;;;7.07;;
14167;SDS011;7163;50.626;12.922;2023-03-21T01:33:08;13.07;;;6.97;;
14167;SDS011;7163;50.626;12.922;2023-03-21T01:38:09;11.63;;;7.47;;
14167;SDS011;7163;50.626;12.922;2023-03-21T01:43:17;13.87;;;6.77;;
14167;SDS011;7163;50.626;12.922;2023-03-21T01:48:25;11.17;;;6.00;;
14167;SDS011;7163;50.626;12.922;2023-03-21T01:53:27;12.50;;;6.53;;
14167;SDS011;7163;50.626;12.922;2023-03-21T01:58:29;10.40;;;6.40;;
14167;SDS011;7163;50.626;12.922;2023-03-21T02:03:32;9.23;;;5.17;;
14167;SDS011;7163;50.626;12.922;2023-03-21T02:08:40;15.53;;;5.97;;
14167;SDS011;7163;50.626;12.922;2023-03-21T02:13:40;11.00;;;5.73;;
14167;SDS011;7163;50.626;12.922;2023-03-21T02:29:11;13.87;;;5.63;;
14167;SDS011;7163;50.626;12.922;2023-03-21T02:45:20;9.43;;;4.77;;
14167;SDS011;7163;50.626;12.922;2023-03-21T02:50:31;8.47;;;4.97;;
14167;SDS011;7163;50.626;12.922;2023-03-21T02:55:33;6.77;;;4.47;;
14167;SDS011;7163;50.626;12.922;2023-03-21T03:00:35;11.23;;;5.73;;
14167;SDS011;7163;50.626;12.922;2023-03-21T03:05:41;11.90;;;5.93;;
14167;SDS011;7163;50.626;12.922;2023-03-21T03:21:28;11.33;;;6.27;;
14167;SDS011;7163;50.626;12.922;2023-03-21T03:26:38;9.57;;;5.67;;
14167;SDS011;7163;50.626;12.922;2023-03-21T03:32:14;13.73;;;6.83;;
14167;SDS011;7163;50.626;12.922;2023-03-21T03:37:10;8.50;;;5.67;;
14167;SDS011;7163;50.626;12.922;2023-03-21T03:42:14;13.37;;;5.77;;
14167;SDS011;7163;50.626;12.922;2023-03-21T03:47:22;11.17;;;5.97;;
14167;SDS011;7163;50.626;12.922;2023-03-21T03:52:30;13.00;;;5.93;;
14167;SDS011;7163;50.626;12.922;2023-03-21T03:57:33;12.73;;;6.17;;
14167;SDS011;7163;50.626;12.922;2023-03-21T04:02:33;12.57;;;6.20;;
14167;SDS011;7163;50.626;12.922;2023-03-21T04:07:34;16.00;;;6.70;;
14167;SDS011;7163;50.626;12.922;2023-03-21T04:12:34;13.13;;;7.63;;
14167;SDS011;7163;50.626;12.922;2023-03-21T04:17:35;17.30;;;7.57;;
14167;SDS011;7163;50.626;12.922;2023-03-21T04:22:35;15.67;;;7.27;;
14167;SDS011;7163;50.626;12.922;2023-03-21T04:27:37;16.83;;;8.60;;
14167;SDS011;7163;50.626;12.922;2023-03-21T04:32:37;13.20;;;6.80;;
14167;SDS011;7163;50.626;12.922;2023-03-21T04:37:41;14.47;;;7.90;;
14167;SDS011;7163;50.626;12.922;2023-03-21T04:42:42;16.73;;;8.37;;
14167;SDS011;7163;50.626;12.922;2023-03-21T04:47:44;23.60;;;11.70;;
14167;SDS011;7163;50.626;12.922;2023-03-21T04:52:45;13.90;;;8.03;;
14167;SDS011;7163;50.626;12.922;2023-03-21T04:57:45;14.67;;;8.60;;
14167;SDS011;7163;50.626;12.922;2023-03-21T05:02:46;16.97;;;8.57;;
14167;SDS011;7163;50.626;12.922;2023-03-21T05:07:47;16.90;;;9.30;;
14167;SDS011;7163;50.626;12.922;2023-03-21T05:12:47;25.47;;;12.90;;
14167;SDS011;7163;50.626;12.922;2023-03-21T05:17:47;17.40;;;9.90;;
14167;SDS011;7163;50.626;12.922;2023-03-21T05:22:49;20.57;;;10.13;;
14167;SDS011;7163;50.626;12.922;2023-03-21T05:27:50;19.13;;;9.60;;
14167;SDS011;7163;50.626;12.922;2023-03-21T05:32:53;17.03;;;9.80;;
14167;SDS011;7163;50.626;12.922;2023-03-21T05:37:53;19.93;;;9.77;;
14167;SDS011;7163;50.626;12.922;2023-03-21T05:42:54;21.40;;;10.57;;
14167;SDS011;7163;50.626;12.922;2023-03-21T05:47:54;16.80;;;9.70;;
14167;SDS011;7163;50.626;12.922;2023-03-21T05:52:55;29.83;;;12.13;;
14167;SDS011;7163;50.626;12.922;2023-03-21T05:57:55;26.13;;;11.30;;
14167;SDS011;7163;50.626;12.922;2023-03-21T06:02:55;16.50;;;10.03;;
14167;SDS011;7163;50.626;12.922;2023-03-21T06:07:56;20.43;;;10.67;;
14167;SDS011;7163;50.626;12.922;2023-03-21T06:12:56;17.30;;;9.63;;
14167;SDS011;7163;50.626;12.922;2023-03-21T06:17:57;19.20;;;9.13;;
14167;SDS011;7163;50.626;12.922;2023-03-21T06:22:57;15.57;;;8.87;;
14167;SDS011;7163;50.626;12.922;2023-03-21T06:27:58;17.77;;;10.80;;
14167;SDS011;7163;50.626;12.922;2023-03-21T06:32:58;14.50;;;8.47;;
14167;SDS011;7163;50.626;12.922;2023-03-21T06:38:01;21.27;;;10.70;;
14167;SDS011;7163;50.626;12.922;2023-03-21T06:43:02;14.50;;;8.63;;
14167;SDS011;7163;50.626;12.922;2023-03-21T06:48:04;17.00;;;9.10;;
14167;SDS011;7163;50.626;12.922;2023-03-21T06:53:05;14.57;;;8.23;;
14167;SDS011;7163;50.626;12.922;2023-03-21T06:58:05;11.27;;;6.17;;
14167;SDS011;7163;50.626;12.922;2023-03-21T07:03:05;11.40;;;6.00;;
14167;SDS011;7163;50.626;12.922;2023-03-21T07:08:06;8.87;;;5.97;;
14167;SDS011;7163;50.626;12.922;2023-03-21T07:13:09;10.77;;;6.00;;
14167;SDS011;7163;50.626;12.922;2023-03-21T07:18:10;12.50;;;7.80;;
14167;SDS011;7163;50.626;12.922;2023-03-21T07:23:10;10.10;;;7.07;;
14167;SDS011;7163;50.626;12.922;2023-03-21T07:28:11;9.63;;;5.73;;
14167;SDS011;7163;50.626;12.922;2023-03-21T07:33:11;7.97;;;4.60;;
14167;SDS011;7163;50.626;12.922;2023-03-21T07:38:12;7.87;;;5.00;;
14167;SDS011;7163;50.626;12.922;2023-03-21T07:43:17;14.33;;;6.80;;
14167;SDS011;7163;50.626;12.922;2023-03-21T07:48:17;6.70;;;4.00;;
14167;SDS011;7163;50.626;12.922;2023-03-21T07:53:18;6.33;;;3.50;;
14167;SDS011;7163;50.626;12.922;2023-03-21T07:58:19;6.03;;;3.67;;
14167;SDS011;7163;50.626;12.922;2023-03-21T08:03:19;6.57;;;4.23;;
14167;SDS011;7163;50.626;12.922;2023-03-21T08:08:20;3.40;;;2.63;;
14167;SDS011;7163;50.626;12.922;2023-03-21T08:13:20;4.10;;;2.53;;
14167;SDS011;7163;50.626;12.922;2023-03-21T08:18:21;3.40;;;2.40;;
14167;SDS011;7163;50.626;12.922;2023-03-21T08:23:21;5.63;;;2.63;;
14167;SDS011;7163;50.626;12.922;2023-03-21T08:28:23;4.83;;;1.83;;
14167;SDS011;7163;50.626;12.922;2023-03-21T08:33:24;1.70;;;1.60;;
14167;SDS011;7163;50.626;12.922;2023-03-21T08:38:24;2.83;;;1.70;;
14167;SDS011;7163;50.626;12.922;2023-03-21T08:43:28;1.50;;;1.40;;
14167;SDS011;7163;50.626;12.922;2023-03-21T08:48:29;1.70;;;1.60;;
14167;SDS011;7163;50.626;12.922;2023-03-21T08:53:29;5.40;;;2.90;;
14167;SDS011;7163;50.626;12.922;2023-03-21T08:58:30;4.53;;;2.23;;
14167;SDS011;7163;50.626;12.922;2023-03-21T09:03:30;7.50;;;2.17;;
14167;SDS011;7163;50.626;12.922;2023-03-21T09:08:30;3.57;;;1.60;;
14167;SDS011;7163;50.626;12.922;2023-03-21T09:13:31;2.77;;;1.70;;
14167;SDS011;7163;50.626;12.922;2023-03-21T09:18:31;12.60;;;2.53;;
14167;SDS011;7163;50.626;12.922;2023-03-21T09:23:44;4.13;;;2.37;;
14167;SDS011;7163;50.626;12.922;2023-03-21T09:28:45;6.40;;;2.60;;
14167;SDS011;7163;50.626;12.922;2023-03-21T09:33:50;28.23;;;3.60;;
14167;SDS011;7163;50.626;12.922;2023-03-21T09:38:52;1.75;;;1.40;;
14167;SDS011;7163;50.626;12.922;2023-03-21T09:49:26;1.92;;;1.75;;
14167;SDS011;7163;50.626;12.922;2023-03-21T09:54:33;2.58;;;1.50;;
14167;SDS011;7163;50.626;12.922;2023-03-21T09:59:36;1.60;;;1.50;;
14167;SDS011;7163;50.626;12.922;2023-03-21T10:04:39;6.65;;;2.78;;
14167;SDS011;7163;50.626;12.922;2023-03-21T10:09:39;1.35;;;1.20;;
14167;SDS011;7163;50.626;12.922;2023-03-21T10:14:44;1.58;;;1.48;;
14167;SDS011;7163;50.626;12.922;2023-03-21T10:20:09;1.52;;;1.10;;
14167;SDS011;7163;50.626;12.922;2023-03-21T10:25:16;0.80;;;0.80;;
14167;SDS011;7163;50.626;12.922;2023-03-21T10:35:48;3.75;;;1.40;;
14167;SDS011;7163;50.626;12.922;2023-03-21T10:40:51;1.75;;;1.10;;
14167;SDS011;7163;50.626;12.922;2023-03-21T10:45:53;5.10;;;1.55;;
14167;SDS011;7163;50.626;12.922;2023-03-21T10:50:54;2.53;;;1.10;;
14167;SDS011;7163;50.626;12.922;2023-03-21T10:55:56;3.53;;;1.20;;
14167;SDS011;7163;50.626;12.922;2023-03-21T11:01:02;1.20;;;0.95;;
14167;SDS011;7163;50.626;12.922;2023-03-21T11:06:05;0.90;;;0.90;;
14167;SDS011;7163;50.626;12.922;2023-03-21T11:11:18;1.23;;;0.90;;
14167;SDS011;7163;50.626;12.922;2023-03-21T11:16:26;2.75;;;1.15;;
14167;SDS011;7163;50.626;12.922;2023-03-21T11:21:37;5.65;;;1.33;;
14167;SDS011;7163;50.626;12.922;2023-03-21T11:26:38;1.55;;;1.10;;
14167;SDS011;7163;50.626;12.922;2023-03-21T11:31:42;5.00;;;1.67;;
14167;SDS011;7163;50.626;12.922;2023-03-21T11:36:43;15.05;;;7.72;;
14167;SDS011;7163;50.626;12.922;2023-03-21T11:41:50;4.75;;;3.22;;
14167;SDS011;7163;50.626;12.922;2023-03-21T11:46:50;3.58;;;2.20;;
14167;SDS011;7163;50.626;12.922;2023-03-21T11:58:12;2.50;;;2.30;;
14167;SDS011;7163;50.626;12.922;2023-03-21T12:03:19;3.28;;;1.75;;
14167;SDS011;7163;50.626;12.922;2023-03-21T12:19:02;1.25;;;1.15;;
14167;SDS011;7163;50.626;12.922;2023-03-21T12:24:16;3.22;;;1.98;;
14167;SDS011;7163;50.626;12.922;2023-03-21T12:29:22;2.00;;;1.20;;
14167;SDS011;7163;50.626;12.922;2023-03-21T12:34:45;1.35;;;0.93;;
14167;SDS011;7163;50.626;12.922;2023-03-21T12:39:49;3.13;;;1.20;;
14167;SDS011;7163;50.626;12.922;2023-03-21T12:44:50;1.27;;;1.17;;
14167;SDS011;7163;50.626;12.922;2023-03-21T12:55:01;20.17;;;7.03;;
14167;SDS011;7163;50.626;12.922;2023-03-21T13:05:20;0.85;;;0.80;;
14167;SDS011;7163;50.626;12.922;2023-03-21T13:10:26;7.20;;;4.05;;
14167;SDS011;7163;50.626;12.922;2023-03-21T13:15:39;1.10;;;0.98;;
14167;SDS011;7163;50.626;12.922;2023-03-21T13:20:53;3.47;;;1.48;;
14167;SDS011;7163;50.626;12.922;2023-03-21T13:25:56;4.38;;;1.98;;
14167;SDS011;7163;50.626;12.922;2023-03-21T13:36:24;3.05;;;1.77;;
14167;SDS011;7163;50.626;12.922;2023-03-21T13:41:34;3.00;;;1.70;;
14167;SDS011;7163;50.626;12.922;2023-03-21T13:46:44;2.40;;;1.50;;
14167;SDS011;7163;50.626;12.922;2023-03-21T13:51:55;5.88;;;2.35;;
14167;SDS011;7163;50.626;12.922;2023-03-21T13:56:58;8.70;;;3.83;;
14167;SDS011;7163;50.626;12.922;2023-03-21T14:07:18;1.60;;;1.20;;
14167;SDS011;7163;50.626;12.922;2023-03-21T14:12:23;6.93;;;3.55;;
14167;SDS011;7163;50.626;12.922;2023-03-21T14:17:30;11.10;;;5.35;;
14167;SDS011;7163;50.626;12.922;2023-03-21T14:22:32;4.80;;;1.65;;
14167;SDS011;7163;50.626;12.922;2023-03-21T14:27:33;4.38;;;2.05;;
14167;SDS011;7163;50.626;12.922;2023-03-21T14:32:34;8.77;;;4.78;;
14167;SDS011;7163;50.626;12.922;2023-03-21T14:37:39;1.48;;;1.27;;
14167;SDS011;7163;50.626;12.922;2023-03-21T14:42:44;2.70;;;1.35;;
14167;SDS011;7163;50.626;12.922;2023-03-21T14:47:56;11.95;;;5.72;;
14167;SDS011;7163;50.626;12.922;2023-03-21T14:53:18;2.45;;;1.40;;
14167;SDS011;7163;50.626;12.922;2023-03-21T14:58:21;8.38;;;3.55;;
14167;SDS011;7163;50.626;12.922;2023-03-21T15:03:22;10.90;;;5.47;;
14167;SDS011;7163;50.626;12.922;2023-03-21T15:08:27;2.38;;;1.50;;
14167;SDS011;7163;50.626;12.922;2023-03-21T15:13:44;8.25;;;3.50;;
14167;SDS011;7163;50.626;12.922;2023-03-21T15:18:49;7.70;;;4.03;;
14167;SDS011;7163;50.626;12.922;2023-03-21T15:23:51;10.45;;;4.25;;
14167;SDS011;7163;50.626;12.922;2023-03-21T15:28:57;6.10;;;2.63;;
14167;SDS011;7163;50.626;12.922;2023-03-21T15:33:58;15.30;;;9.55;;
14167;SDS011;7163;50.626;12.922;2023-03-21T15:39:05;61.28;;;32.10;;
14167;SDS011;7163;50.626;12.922;2023-03-21T15:54:15;46.45;;;22.80;;
14167;SDS011;7163;50.626;12.922;2023-03-21T15:59:24;130.53;;;56.23;;
14167;SDS011;7163;50.626;12.922;2023-03-21T16:04:27;126.37;;;64.17;;
14167;SDS011;7163;50.626;12.922;2023-03-21T16:09:38;42.27;;;20.87;;
14167;SDS011;7163;50.626;12.922;2023-03-21T16:14:42;35.83;;;17.20;;
14167;SDS011;7163;50.626;12.922;2023-03-21T16:19:42;27.80;;;12.83;;
14167;SDS011;7163;50.626;12.922;2023-03-21T16:24:47;24.53;;;14.33;;
14167;SDS011;7163;50.626;12.922;2023-03-21T16:29:47;22.80;;;10.00;;
14167;SDS011;7163;50.626;12.922;2023-03-21T16:34:48;13.63;;;7.10;;
14167;SDS011;7163;50.626;12.922;2023-03-21T16:39:53;10.90;;;5.50;;
14167;SDS011;7163;50.626;12.922;2023-03-21T16:44:54;18.10;;;9.40;;
14167;SDS011;7163;50.626;12.922;2023-03-21T16:49:54;25.70;;;13.97;;
14167;SDS011;7163;50.626;12.922;2023-03-21T16:54:55;19.33;;;10.93;;
14167;SDS011;7163;50.626;12.922;2023-03-21T16:59:55;18.43;;;12.40;;
14167;SDS011;7163;50.626;12.922;2023-03-21T17:04:56;8.57;;;5.40;;
14167;SDS011;7163;50.626;12.922;2023-03-21T17:09:57;12.57;;;6.47;;
14167;SDS011;7163;50.626;12.922;2023-03-21T17:14:57;19.90;;;8.07;;
14167;SDS011;7163;50.626;12.922;2023-03-21T17:19:58;17.63;;;7.93;;
14167;SDS011;7163;50.626;12.922;2023-03-21T17:24:58;16.47;;;7.60;;
14167;SDS011;7163;50.626;12.922;2023-03-21T17:29:59;19.80;;;9.70;;
14167;SDS011;7163;50.626;12.922;2023-03-21T17:34:59;10.63;;;5.90;;
14167;SDS011;7163;50.626;12.922;2023-03-21T17:40:00;8.30;;;4.30;;
14167;SDS011;7163;50.626;12.922;2023-03-21T17:45:00;13.10;;;7.53;;
14167;SDS011;7163;50.626;12.922;2023-03-21T17:50:01;10.60;;;5.97;;
14167;SDS011;7163;50.626;12.922;2023-03-21T17:55:01;12.27;;;5.77;;
14167;SDS011;7163;50.626;12.922;2023-03-21T18:00:03;10.90;;;5.30;;
14167;SDS011;7163;50.626;12.922;2023-03-21T18:05:10;16.20;;;7.07;;
14167;SDS011;7163;50.626;12.922;2023-03-21T18:10:14;11.97;;;6.50;;
14167;SDS011;7163;50.626;12.922;2023-03-21T18:15:16;15.70;;;8.50;;
14167;SDS011;7163;50.626;12.922;2023-03-21T18:20:17;15.33;;;7.77;;
14167;SDS011;7163;50.626;12.922;2023-03-21T18:25:20;12.97;;;6.93;;
14167;SDS011;7163;50.626;12.922;2023-03-21T18:30:20;14.43;;;5.63;;
14167;SDS011;7163;50.626;12.922;2023-03-21T18:35:21;7.47;;;3.77;;
14167;SDS011;7163;50.626;12.922;2023-03-21T18:40:23;6.97;;;3.63;;
14167;SDS011;7163;50.626;12.922;2023-03-21T18:45:23;10.57;;;4.77;;
14167;SDS011;7163;50.626;12.922;2023-03-21T18:50:24;9.17;;;4.77;;
14167;SDS011;7163;50.626;12.922;2023-03-21T18:55:24;6.33;;;3.67;;
14167;SDS011;7163;50.626;12.922;2023-03-21T19:00:25;5.33;;;3.13;;
14167;SDS011;7163;50.626;12.922;2023-03-21T19:05:27;9.17;;;3.97;;
14167;SDS011;7163;50.626;12.922;2023-03-21T19:10:28;5.80;;;3.70;;
14167;SDS011;7163;50.626;12.922;2023-03-21T19:15:29;6.37;;;3.80;;
14167;SDS011;7163;50.626;12.922;2023-03-21T19:20:29;10.30;;;5.30;;
14167;SDS011;7163;50.626;12.922;2023-03-21T19:25:30;8.63;;;4.30;;
14167;SDS011;7163;50.626;12.922;2023-03-21T19:30:30;8.57;;;4.93;;
14167;SDS011;7163;50.626;12.922;2023-03-21T19:35:30;7.93;;;4.03;;
14167;SDS011;7163;50.626;12.922;2023-03-21T19:40:32;6.13;;;4.30;;
14167;SDS011;7163;50.626;12.922;2023-03-21T19:45:32;9.23;;;4.00;;
14167;SDS011;7163;50.626;12.922;2023-03-21T19:50:33;7.73;;;3.67;;
14167;SDS011;7163;50.626;12.922;2023-03-21T19:55:33;5.73;;;3.93;;
14167;SDS011;7163;50.626;12.922;2023-03-21T20:00:35;9.83;;;4.20;;
14167;SDS011;7163;50.626;12.922;2023-03-21T20:05:36;8.20;;;3.70;;
14167;SDS011;7163;50.626;12.922;2023-03-21T20:10:36;6.40;;;3.50;;
14167;SDS011;7163;50.626;12.922;2023-03-21T20:15:37;6.43;;;3.70;;
14167;SDS011;7163;50.626;12.922;2023-03-21T20:20:37;10.73;;;4.40;;
14167;SDS011;7163;50.626;12.922;2023-03-21T20:25:41;7.53;;;4.13;;
14167;SDS011;7163;50.626;12.922;2023-03-21T20:30:49;6.80;;;3.80;;
14167;SDS011;7163;50.626;12.922;2023-03-21T20:35:56;7.33;;;4.10;;
14167;SDS011;7163;50.626;12.922;2023-03-21T20:40:59;8.13;;;4.70;;
14167;SDS011;7163;50.626;12.922;2023-03-21T20:46:01;10.47;;;4.47;;
14167;SDS011;7163;50.626;12.922;2023-03-21T20:51:04;7.03;;;4.27;;
14167;SDS011;7163;50.626;12.922;2023-03-21T20:56:09;11.67;;;4.70;;
14167;SDS011;7163;50.626;12.922;2023-03-21T21:01:10;11.40;;;4.97;;
14167;SDS011;7163;50.626;12.922;2023-03-21T21:06:15;12.23;;;4.77;;
14167;SDS011;7163;50.626;12.922;2023-03-21T21:11:17;17.20;;;5.37;;
14167;SDS011;7163;50.626;12.922;2023-03-21T21:16:18;8.17;;;4.40;;
14167;SDS011;7163;50.626;12.922;2023-03-21T21:21:18;9.63;;;5.40;;
14167;SDS011;7163;50.626;12.922;2023-03-21T21:26:18;10.53;;;5.87;;
14167;SDS011;7163;50.626;12.922;2023-03-21T21:31:19;10.93;;;5.57;;
14167;SDS011;7163;50.626;12.922;2023-03-21T21:36:19;11.10;;;5.60;;
14167;SDS011;7163;50.626;12.922;2023-03-21T21:41:21;9.03;;;5.33;;
14167;SDS011;7163;50.626;12.922;2023-03-21T21:46:23;9.50;;;4.83;;
14167;SDS011;7163;50.626;12.922;2023-03-21T21:51:23;10.87;;;5.07;;
14167;SDS011;7163;50.626;12.922;2023-03-21T21:56:25;10.17;;;5.13;;
14167;SDS011;7163;50.626;12.922;2023-03-21T22:01:31;9.77;;;4.80;;
14167;SDS011;7163;50.626;12.922;2023-03-21T22:06:33;11.13;;;5.80;;
14167;SDS011;7163;50.626;12.922;2023-03-21T22:11:34;10.47;;;6.13;;
14167;SDS011;7163;50.626;12.922;2023-03-21T22:16:35;12.90;;;5.87;;
14167;SDS011;7163;50.626;12.922;2023-03-21T22:21:35;10.43;;;5.30;;
14167;SDS011;7163;50.626;12.922;2023-03-21T22:26:35;9.37;;;5.63;;
14167;SDS011;7163;50.626;12.922;2023-03-21T22:31:37;10.50;;;5.90;;
14167;SDS011;7163;50.626;12.922;2023-03-21T22:36:40;11.00;;;6.23;;
14167;SDS011;7163;50.626;12.922;2023-03-21T22:41:46;12.93;;;6.90;;
14167;SDS011;7163;50.626;12.922;2023-03-21T22:46:46;11.67;;;6.23;;
14167;SDS011;7163;50.626;12.922;2023-03-21T22:51:46;10.10;;;5.97;;
14167;SDS011;7163;50.626;12.922;2023-03-21T22:56:47;10.40;;;5.93;;
14167;SDS011;7163;50.626;12.922;2023-03-21T23:01:47;13.97;;;6.10;;
14167;SDS011;7163;50.626;12.922;2023-03-21T23:06:48;15.40;;;6.40;;
14167;SDS011;7163;50.626;12.922;2023-03-21T23:11:49;10.50;;;5.57;;
14167;SDS011;7163;50.626;12.922;2023-03-21T23:16:50;12.00;;;6.07;;
14167;SDS011;7163;50.626;12.922;2023-03-21T23:21:52;9.97;;;5.70;;
14167;SDS011;7163;50.626;12.922;2023-03-21T23:26:52;10.50;;;5.77;;
14167;SDS011;7163;50.626;12.922;2023-03-21T23:31:53;11.03;;;4.80;;
14167;SDS011;7163;50.626;12.922;2023-03-21T23:36:53;10.87;;;5.60;;
14167;SDS011;7163;50.626;12.922;2023-03-21T23:41:54;8.03;;;4.53;;
14167;SDS011;7163;50.626;12.922;2023-03-21T23:46:54;8.30;;;4.67;;
14167;SDS011;7163;50.626;12.922;2023-03-21T23:51:54;9.10;;;4.13;;
14167;SDS011;7163;50.626;12.922;2023-03-21T23:56:55;9.00;;;4.60;;
